createdAt,value
2023-04-24T00:00:49.666Z,71.20
2023-04-24T00:03:22.059Z,71.20
2023-04-24T00:05:50.052Z,71.20
2023-04-24T00:08:17.918Z,70.90
2023-04-24T00:10:45.776Z,70.30
2023-04-24T00:13:13.606Z,71.30
2023-04-24T00:15:41.387Z,70.60
2023-04-24T00:18:09.218Z,70.60
2023-04-24T00:20:38.395Z,70.90
2023-04-24T00:23:06.234Z,71.00
2023-04-24T00:25:33.999Z,70.90
2023-04-24T00:28:01.834Z,71.30
2023-04-24T00:30:30.486Z,71.20
2023-04-24T00:32:58.829Z,70.70
2023-04-24T00:35:26.904Z,71.00
2023-04-24T00:37:56.175Z,70.50
2023-04-24T00:40:24.204Z,71.70
2023-04-24T00:42:52.020Z,71.40
2023-04-24T00:45:20.227Z,70.70
2023-04-24T00:47:49.823Z,70.90
2023-04-24T00:50:18.275Z,70.70
2023-04-24T00:52:46.278Z,71.00
2023-04-24T00:55:15.651Z,70.50
2023-04-24T00:57:43.653Z,71.00
2023-04-24T01:00:12.806Z,71.10
2023-04-24T01:02:45.034Z,71.00
2023-04-24T01:05:14.107Z,71.20
2023-04-24T01:07:46.339Z,71.50
2023-04-24T01:10:16.356Z,71.30
2023-04-24T01:12:44.217Z,70.80
2023-04-24T01:15:14.198Z,71.10
2023-04-24T01:17:43.886Z,70.50
2023-04-24T01:20:12.677Z,71.00
2023-04-24T01:22:42.298Z,71.30
2023-04-24T01:25:10.688Z,70.80
2023-04-24T01:27:38.518Z,71.80
2023-04-24T01:30:08.130Z,71.60
2023-04-24T01:32:36.436Z,71.20
2023-04-24T01:35:05.006Z,71.10
2023-04-24T01:37:33.161Z,70.90
2023-04-24T01:40:02.436Z,71.60
2023-04-24T01:42:31.954Z,71.20
2023-04-24T01:45:00.208Z,71.00
2023-04-24T01:47:28.248Z,71.70
2023-04-24T01:49:56.163Z,71.50
2023-04-24T01:52:24.146Z,71.50
2023-04-24T01:54:52.067Z,71.40
2023-04-24T01:57:21.302Z,71.10
2023-04-24T01:59:49.205Z,71.10
2023-04-24T02:02:17.098Z,71.00
2023-04-24T02:04:45.139Z,71.50
2023-04-24T02:07:13.530Z,71.00
2023-04-24T02:09:41.468Z,71.20
2023-04-24T02:12:09.630Z,71.50
2023-04-24T02:14:38.835Z,72.00
2023-04-24T02:17:07.577Z,71.70
2023-04-24T02:19:38.175Z,70.90
2023-04-24T02:22:05.951Z,71.50
2023-04-24T02:24:35.843Z,71.80
2023-04-24T02:27:03.789Z,71.20
2023-04-24T02:29:31.897Z,71.60
2023-04-24T02:32:01.437Z,71.70
2023-04-24T02:34:29.262Z,71.80
2023-04-24T02:36:57.119Z,71.50
2023-04-24T02:39:24.896Z,71.70
2023-04-24T02:41:54.104Z,71.90
2023-04-24T02:44:22.675Z,71.30
2023-04-24T02:46:50.845Z,71.60
2023-04-24T02:49:20.036Z,71.60
2023-04-24T02:51:48.112Z,71.70
2023-04-24T02:54:15.861Z,71.90
2023-04-24T02:56:43.760Z,71.90
2023-04-24T02:59:12.189Z,72.30
2023-04-24T03:01:40.317Z,71.90
2023-04-24T03:04:08.432Z,72.30
2023-04-24T03:06:37.769Z,72.00
2023-04-24T03:09:06.131Z,71.90
2023-04-24T03:11:33.965Z,72.30
2023-04-24T03:14:02.227Z,72.30
2023-04-24T03:16:30.065Z,72.40
2023-04-24T03:18:57.891Z,72.10
2023-04-24T03:21:28.551Z,71.60
2023-04-24T03:23:57.670Z,72.10
2023-04-24T03:26:25.735Z,72.20
2023-04-24T03:29:13.479Z,71.50
2023-04-24T03:31:41.373Z,71.10
2023-04-24T03:34:09.355Z,71.10
2023-04-24T03:36:37.397Z,71.20
2023-04-24T03:39:08.939Z,70.60
2023-04-24T03:41:38.659Z,70.40
2023-04-24T03:44:13.193Z,70.70
2023-04-24T03:46:41.957Z,70.60
2023-04-24T03:49:10.792Z,70.50
2023-04-24T03:51:43.056Z,70.00
2023-04-24T03:54:22.912Z,69.60
2023-04-24T03:56:52.171Z,70.50
2023-04-24T03:59:20.292Z,70.40
2023-04-24T04:01:55.884Z,70.30
2023-04-24T04:04:24.109Z,69.70
2023-04-24T04:06:52.980Z,70.10
2023-04-24T04:09:22.370Z,69.70
2023-04-24T04:11:50.187Z,68.90
2023-04-24T04:14:18.740Z,69.30
2023-04-24T04:16:49.377Z,69.70
2023-04-24T04:19:17.350Z,69.50
2023-04-24T04:21:46.530Z,69.10
2023-04-24T04:24:27.369Z,69.30
2023-04-24T04:26:57.447Z,69.50
2023-04-24T04:29:29.760Z,69.10
2023-04-24T04:31:57.921Z,69.20
2023-04-24T04:34:26.073Z,69.00
2023-04-24T04:36:53.894Z,69.10
2023-04-24T04:39:38.848Z,68.60
2023-04-24T04:42:10.029Z,68.90
2023-04-24T04:44:41.833Z,68.50
2023-04-24T04:47:13.060Z,68.70
2023-04-24T04:49:44.324Z,68.10
2023-04-24T04:52:19.838Z,68.70
2023-04-24T04:54:52.441Z,68.80
2023-04-24T04:57:21.374Z,67.90
2023-04-24T04:59:49.478Z,67.50
2023-04-24T05:02:27.445Z,68.10
2023-04-24T05:04:55.576Z,68.40
2023-04-24T05:07:23.747Z,68.10
2023-04-24T05:09:55.442Z,68.10
2023-04-24T05:12:23.266Z,68.10
2023-04-24T05:14:54.073Z,67.60
2023-04-24T05:17:22.071Z,68.10
2023-04-24T05:19:50.026Z,67.80
2023-04-24T05:22:19.585Z,68.50
2023-04-24T05:24:51.902Z,68.40
2023-04-24T05:27:34.129Z,68.30
2023-04-24T05:30:03.768Z,68.10
2023-04-24T05:32:31.612Z,68.10
2023-04-24T05:34:59.443Z,67.80
2023-04-24T05:37:27.860Z,67.50
2023-04-24T05:39:55.688Z,67.80
2023-04-24T05:42:23.492Z,67.40
2023-04-24T05:44:56.121Z,67.40
2023-04-24T05:47:26.987Z,67.70
2023-04-24T05:49:55.680Z,67.60
2023-04-24T05:52:23.651Z,67.40
2023-04-24T05:54:51.909Z,67.50
2023-04-24T05:57:24.042Z,67.00
2023-04-24T06:00:00.180Z,67.70
2023-04-24T06:02:28.472Z,67.40
2023-04-24T06:04:56.453Z,66.10
2023-04-24T06:07:27.175Z,66.80
2023-04-24T06:09:55.469Z,67.10
2023-04-24T06:12:23.811Z,67.40
2023-04-24T06:15:08.982Z,68.40
2023-04-24T06:18:06.096Z,68.70
2023-04-24T06:20:34.628Z,69.70
2023-04-24T06:23:03.550Z,70.40
2023-04-24T06:25:31.624Z,69.60
2023-04-24T06:27:59.472Z,70.20
2023-04-24T06:30:29.140Z,70.10
2023-04-24T06:33:03.091Z,70.60
2023-04-24T06:35:38.835Z,70.00
2023-04-24T06:38:07.029Z,69.60
2023-04-24T06:40:34.839Z,70.30
2023-04-24T06:43:03.668Z,68.50
2023-04-24T06:45:32.828Z,69.70
2023-04-24T06:48:00.742Z,71.00
2023-04-24T06:50:28.576Z,70.50
2023-04-24T06:52:56.412Z,70.60
2023-04-24T06:55:24.193Z,70.80
2023-04-24T06:57:51.953Z,71.10
2023-04-24T07:00:20.124Z,69.60
2023-04-24T07:02:49.399Z,70.90
2023-04-24T07:05:20.757Z,70.40
2023-04-24T07:07:49.907Z,69.50
2023-04-24T07:10:17.917Z,70.50
2023-04-24T07:12:45.901Z,70.70
2023-04-24T07:15:13.727Z,70.00
2023-04-24T07:17:44.411Z,70.00
2023-04-24T07:20:17.334Z,70.70
2023-04-24T07:22:45.266Z,71.60
2023-04-24T07:25:13.052Z,70.40
2023-04-24T07:27:40.862Z,71.60
2023-04-24T07:30:09.541Z,71.20
2023-04-24T07:32:37.328Z,70.90
2023-04-24T07:35:05.655Z,70.20
2023-04-24T07:37:34.871Z,70.50
2023-04-24T07:40:03.023Z,70.80
2023-04-24T07:42:31.843Z,71.10
2023-04-24T07:45:00.648Z,71.20
2023-04-24T07:47:28.509Z,71.90
2023-04-24T07:49:56.355Z,72.00
2023-04-24T07:52:24.186Z,72.10
2023-04-24T07:54:59.125Z,72.00
2023-04-24T07:57:26.956Z,72.70
2023-04-24T08:00:02.137Z,71.70
2023-04-24T08:02:39.708Z,72.10
2023-04-24T08:05:08.549Z,72.20
2023-04-24T08:07:37.107Z,72.90
2023-04-24T08:10:07.602Z,72.10
2023-04-24T08:12:35.642Z,72.10
2023-04-24T08:15:03.520Z,73.20
2023-04-24T08:17:34.283Z,71.70
2023-04-24T08:20:03.291Z,72.60
2023-04-24T08:22:31.276Z,72.20
2023-04-24T08:25:02.634Z,71.40
2023-04-24T08:27:31.821Z,72.80
2023-04-24T08:29:59.882Z,71.40
2023-04-24T08:32:28.816Z,71.90
2023-04-24T08:34:57.362Z,73.00
2023-04-24T08:37:25.218Z,71.50
2023-04-24T08:39:53.152Z,71.60
2023-04-24T08:42:21.766Z,72.90
2023-04-24T08:44:52.212Z,73.30
2023-04-24T08:47:21.945Z,73.50
2023-04-24T08:49:51.150Z,72.50
2023-04-24T08:52:21.043Z,73.40
2023-04-24T08:54:49.451Z,71.70
2023-04-24T08:57:18.272Z,73.40
2023-04-24T08:59:47.463Z,73.10
2023-04-24T09:02:17.954Z,73.50
2023-04-24T09:04:48.101Z,73.50
2023-04-24T09:07:17.883Z,72.20
2023-04-24T09:09:46.325Z,73.00
2023-04-24T09:12:14.518Z,71.40
2023-04-24T09:14:45.875Z,73.40
2023-04-24T09:17:13.909Z,73.30
2023-04-24T09:19:43.579Z,73.00
2023-04-24T09:22:12.112Z,73.10
2023-04-24T09:24:40.840Z,74.30
2023-04-24T09:27:11.293Z,75.40
2023-04-24T09:29:39.153Z,75.20
2023-04-24T09:32:22.334Z,75.30
2023-04-24T09:34:52.194Z,75.20
2023-04-24T09:37:30.935Z,76.60
2023-04-24T09:40:13.227Z,76.60
2023-04-24T09:42:41.391Z,76.70
2023-04-24T09:45:15.414Z,77.60
2023-04-24T09:47:44.277Z,77.30
2023-04-24T09:50:15.596Z,78.40
2023-04-24T09:52:46.304Z,77.90
2023-04-24T09:55:20.539Z,77.00
2023-04-24T09:57:52.887Z,77.80
2023-04-24T10:00:23.806Z,77.50
2023-04-24T10:02:58.419Z,78.20
2023-04-24T10:05:32.085Z,78.50
2023-04-24T10:08:03.687Z,80.10
2023-04-24T10:10:31.868Z,80.50
2023-04-24T10:13:00.975Z,80.60
2023-04-24T10:15:29.197Z,81.80
2023-04-24T10:17:59.880Z,82.40
2023-04-24T10:20:31.632Z,82.30
2023-04-24T10:23:00.934Z,80.80
2023-04-24T10:25:30.645Z,82.40
2023-04-24T10:28:00.615Z,81.20
2023-04-24T10:30:29.943Z,80.30
2023-04-24T10:32:58.026Z,78.40
2023-04-24T10:35:27.660Z,76.90
2023-04-24T10:38:01.820Z,76.40
2023-04-24T10:40:33.034Z,76.60
2023-04-24T10:43:01.227Z,75.70
2023-04-24T10:45:29.125Z,75.50
2023-04-24T10:48:05.051Z,75.50
2023-04-24T10:50:45.312Z,74.00
2023-04-24T10:53:19.556Z,73.60
2023-04-24T10:55:49.553Z,73.90
2023-04-24T10:58:18.595Z,74.00
2023-04-24T11:00:56.909Z,72.80
2023-04-24T11:03:27.846Z,72.90
2023-04-24T11:05:59.044Z,72.60
2023-04-24T11:08:31.281Z,73.70
2023-04-24T11:11:04.522Z,73.70
2023-04-24T11:14:05.099Z,73.60
2023-04-24T11:16:34.981Z,74.40
2023-04-24T11:19:04.970Z,74.90
2023-04-24T11:21:43.104Z,74.80
2023-04-24T11:24:29.852Z,73.90
2023-04-24T11:26:59.394Z,74.70
2023-04-24T11:29:44.925Z,75.40
2023-04-24T11:32:27.134Z,75.40
2023-04-24T11:34:56.748Z,75.70
2023-04-24T11:37:26.070Z,74.40
2023-04-24T11:39:59.823Z,74.40
2023-04-24T11:42:28.185Z,73.50
2023-04-24T11:44:58.842Z,73.30
2023-04-24T11:47:30.978Z,73.50
2023-04-24T11:50:00.923Z,74.60
2023-04-24T11:52:29.727Z,74.40
2023-04-24T11:54:59.205Z,75.20
2023-04-24T11:57:29.850Z,75.10
2023-04-24T11:59:58.180Z,74.30
2023-04-24T12:02:27.377Z,74.40
2023-04-24T12:04:56.396Z,74.70
2023-04-24T12:07:25.330Z,74.00
2023-04-24T12:10:00.566Z,74.40
2023-04-24T12:12:30.002Z,73.40
2023-04-24T12:14:59.608Z,74.90
2023-04-24T12:17:29.698Z,74.60
2023-04-24T12:20:02.277Z,74.60
2023-04-24T12:22:30.293Z,74.90
2023-04-24T12:25:01.557Z,73.80
2023-04-24T12:27:32.117Z,74.50
2023-04-24T12:30:01.229Z,74.10
2023-04-24T12:32:29.507Z,74.80
2023-04-24T12:34:57.987Z,74.80
2023-04-24T12:37:27.045Z,74.10
2023-04-24T12:40:03.794Z,74.80
2023-04-24T12:42:32.473Z,74.40
2023-04-24T12:45:01.756Z,74.20
2023-04-24T12:47:30.402Z,73.30
2023-04-24T12:49:58.316Z,73.50
2023-04-24T12:52:26.999Z,73.50
2023-04-24T12:54:56.863Z,73.70
2023-04-24T12:57:26.938Z,73.90
2023-04-24T12:59:56.390Z,74.20
2023-04-24T13:02:24.393Z,74.00
2023-04-24T13:04:52.895Z,75.00
2023-04-24T13:07:20.699Z,75.00
2023-04-24T13:09:50.478Z,74.90
2023-04-24T13:12:18.862Z,73.80
2023-04-24T13:14:48.880Z,75.00
2023-04-24T13:17:17.193Z,74.40
2023-04-24T13:19:46.132Z,74.60
2023-04-24T13:22:14.736Z,74.40
2023-04-24T13:24:42.872Z,74.00
2023-04-24T13:27:10.962Z,74.10
2023-04-24T13:29:39.285Z,73.10
2023-04-24T13:32:08.839Z,72.30
2023-04-24T13:34:37.702Z,73.70
2023-04-24T13:37:06.450Z,73.80
2023-04-24T13:39:34.566Z,73.50
2023-04-24T13:42:04.634Z,73.00
2023-04-24T13:44:32.854Z,73.10
2023-04-24T13:47:01.242Z,72.70
2023-04-24T13:49:30.482Z,72.60
2023-04-24T13:51:58.392Z,72.80
2023-04-24T13:54:27.005Z,73.20
2023-04-24T13:56:55.110Z,72.10
2023-04-24T13:59:23.212Z,72.50
2023-04-24T14:01:51.212Z,71.90
2023-04-24T14:04:19.285Z,72.70
2023-04-24T14:06:48.574Z,72.80
2023-04-24T14:09:16.643Z,73.80
2023-04-24T14:11:44.648Z,72.40
2023-04-24T14:14:12.769Z,73.80
2023-04-24T14:16:40.768Z,72.50
2023-04-24T14:19:08.639Z,72.80
2023-04-24T14:21:36.467Z,73.70
2023-04-24T14:24:05.940Z,73.30
2023-04-24T14:26:34.045Z,72.90
2023-04-24T14:31:32.581Z,71.20
2023-04-24T14:34:00.376Z,71.90
2023-04-24T14:36:28.182Z,72.00
2023-04-24T14:38:55.971Z,72.50
2023-04-24T14:41:25.158Z,72.40
2023-04-24T14:43:52.957Z,70.70
2023-04-24T14:46:20.835Z,72.70
2023-04-24T14:48:48.771Z,72.80
2023-04-24T14:51:16.562Z,72.80
2023-04-24T14:53:44.564Z,72.70
2023-04-24T14:56:12.615Z,73.10
2023-04-24T14:58:41.844Z,72.70
2023-04-24T15:01:09.630Z,74.00
2023-04-24T15:03:37.656Z,72.70
2023-04-24T15:06:06.207Z,73.70
2023-04-24T15:08:34.026Z,72.70
2023-04-24T15:11:01.947Z,72.20
2023-04-24T15:13:29.865Z,71.00
2023-04-24T15:15:59.007Z,71.20
2023-04-24T15:18:28.516Z,71.00
2023-04-24T15:20:56.338Z,71.10
2023-04-24T15:23:24.122Z,70.00
2023-04-24T15:25:52.005Z,70.60
2023-04-24T15:28:20.148Z,69.60
2023-04-24T15:30:47.940Z,69.10
2023-04-24T15:33:17.046Z,68.60
2023-04-24T15:35:44.888Z,69.00
2023-04-24T15:38:12.704Z,68.90
2023-04-24T15:40:40.490Z,68.40
2023-04-24T15:43:08.255Z,68.10
2023-04-24T15:45:36.167Z,68.90
2023-04-24T15:48:04.707Z,69.40
2023-04-24T15:50:33.931Z,67.90
2023-04-24T15:53:01.706Z,67.90
2023-04-24T15:55:29.756Z,69.20
2023-04-24T15:57:57.620Z,68.70
2023-04-24T16:00:25.559Z,66.80
2023-04-24T16:02:53.415Z,70.40
2023-04-24T16:05:22.981Z,68.70
2023-04-24T16:07:52.172Z,69.60
2023-04-24T16:10:19.994Z,68.70
2023-04-24T16:12:47.815Z,68.30
2023-04-24T16:15:15.600Z,68.60
2023-04-24T16:17:44.330Z,68.90
2023-04-24T16:20:13.152Z,69.40
2023-04-24T16:22:41.549Z,68.30
2023-04-24T16:25:11.569Z,68.10
2023-04-24T16:27:39.586Z,68.40
2023-04-24T16:30:08.679Z,67.40
2023-04-24T16:32:36.500Z,68.90
2023-04-24T16:35:04.428Z,68.00
2023-04-24T16:37:32.256Z,66.30
2023-04-24T16:40:00.166Z,68.10
2023-04-24T16:42:29.283Z,66.00
2023-04-24T16:44:57.065Z,66.00
2023-04-24T16:47:24.937Z,67.60
2023-04-24T16:49:52.788Z,69.30
2023-04-24T16:52:20.558Z,66.70
2023-04-24T16:54:48.447Z,67.90
2023-04-24T16:57:16.437Z,67.30
2023-04-24T16:59:45.561Z,67.70
2023-04-24T17:02:14.082Z,69.20
2023-04-24T17:04:41.956Z,67.50
2023-04-24T17:07:09.909Z,66.80
2023-04-24T17:09:37.812Z,67.00
2023-04-24T17:12:06.704Z,67.10
2023-04-24T17:14:34.459Z,67.10
2023-04-24T17:17:03.848Z,66.50
2023-04-24T17:19:31.686Z,66.10
2023-04-24T17:21:59.473Z,67.20
2023-04-24T17:24:27.387Z,68.10
2023-04-24T17:26:58.866Z,67.60
2023-04-24T17:29:29.408Z,65.90
2023-04-24T17:31:57.219Z,67.10
2023-04-24T17:34:26.443Z,68.20
2023-04-24T17:36:54.301Z,65.80
2023-04-24T17:39:22.091Z,66.60
2023-04-24T17:41:50.163Z,67.60
2023-04-24T17:44:17.956Z,65.60
2023-04-24T17:46:45.711Z,66.10
2023-04-24T17:49:13.459Z,65.20
2023-04-24T17:51:42.582Z,66.70
2023-04-24T17:54:10.361Z,66.30
2023-04-24T17:56:38.211Z,65.90
2023-04-24T17:59:06.042Z,66.30
2023-04-24T18:01:33.920Z,66.90
2023-04-24T18:04:01.782Z,67.50
2023-04-24T18:06:30.718Z,66.50
2023-04-24T18:08:59.829Z,66.20
2023-04-24T18:11:28.945Z,67.10
2023-04-24T18:13:56.734Z,67.50
2023-04-24T18:16:25.822Z,67.70
2023-04-24T18:18:54.416Z,67.60
2023-04-24T18:21:23.578Z,67.40
2023-04-24T18:23:51.517Z,67.70
2023-04-24T18:26:20.624Z,67.90
2023-04-24T18:28:48.641Z,67.90
2023-04-24T18:31:16.761Z,67.90
2023-04-24T18:33:44.734Z,68.50
2023-04-24T18:36:12.585Z,67.60
2023-04-24T18:38:40.401Z,68.30
2023-04-24T18:41:08.191Z,68.20
2023-04-24T18:43:37.448Z,68.50
2023-04-24T18:46:05.280Z,66.80
2023-04-24T18:48:33.069Z,67.60
2023-04-24T18:51:01.284Z,67.70
2023-04-24T18:53:29.063Z,68.70
2023-04-24T18:55:56.880Z,67.20
2023-04-24T18:58:24.658Z,66.80
2023-04-24T19:00:53.804Z,68.30
2023-04-24T19:03:21.827Z,67.80
2023-04-24T19:05:49.720Z,68.20
2023-04-24T19:08:17.536Z,67.50
2023-04-24T19:10:45.387Z,67.30
2023-04-24T19:13:13.195Z,67.30
2023-04-24T19:15:41.081Z,67.00
2023-04-24T19:18:10.231Z,67.10
2023-04-24T19:20:38.125Z,67.30
2023-04-24T19:23:06.136Z,67.40
2023-04-24T19:25:33.944Z,67.60
2023-04-24T19:28:02.257Z,67.80
2023-04-24T19:30:30.164Z,67.80
2023-04-24T19:32:57.996Z,67.60
2023-04-24T19:35:27.186Z,67.90
2023-04-24T19:37:55.049Z,68.10
2023-04-24T19:40:22.827Z,68.10
2023-04-24T19:42:50.708Z,68.20
2023-04-24T19:45:24.314Z,68.20
2023-04-24T19:47:52.342Z,67.80
2023-04-24T19:50:20.891Z,68.30
2023-04-24T19:52:50.143Z,68.20
2023-04-24T19:55:18.433Z,68.60
2023-04-24T19:57:46.232Z,68.80
2023-04-24T20:00:14.942Z,68.40
2023-04-24T20:02:42.988Z,68.50
2023-04-24T20:05:11.772Z,68.10
2023-04-24T20:07:39.679Z,68.60
2023-04-24T20:10:10.497Z,68.20
2023-04-24T20:12:38.437Z,68.70
2023-04-24T20:15:07.285Z,68.70
2023-04-24T20:17:35.108Z,68.70
2023-04-24T20:20:03.352Z,69.00
2023-04-24T20:22:32.442Z,68.70
2023-04-24T20:25:00.221Z,69.10
2023-04-24T20:27:30.163Z,69.00
2023-04-24T20:29:58.833Z,68.70
2023-04-24T20:32:26.723Z,69.00
2023-04-24T20:34:54.610Z,69.10
2023-04-24T20:37:22.406Z,69.20
2023-04-24T20:39:50.655Z,68.90
2023-04-24T20:42:18.524Z,69.00
2023-04-24T20:44:47.726Z,69.30
2023-04-24T20:47:15.696Z,69.40
2023-04-24T20:49:43.440Z,69.40
2023-04-24T20:52:11.232Z,69.40
2023-04-24T20:54:39.071Z,69.90
2023-04-24T20:57:06.866Z,69.20
2023-04-24T20:59:34.802Z,69.50
2023-04-24T21:02:04.042Z,69.30
2023-04-24T21:04:34.949Z,69.60
2023-04-24T21:07:02.846Z,69.50
2023-04-24T21:09:30.693Z,69.30
2023-04-24T21:11:58.962Z,69.30
2023-04-24T21:14:26.734Z,69.80
2023-04-24T21:16:56.427Z,69.40
2023-04-24T21:19:25.863Z,69.20
2023-04-24T21:21:53.647Z,69.50
2023-04-24T21:24:22.659Z,69.40
2023-04-24T21:26:50.998Z,69.40
2023-04-24T21:29:19.357Z,70.20
2023-04-24T21:31:47.231Z,70.10
2023-04-24T21:34:15.483Z,70.10
2023-04-24T21:36:45.882Z,70.20
2023-04-24T21:39:13.713Z,70.40
2023-04-24T21:41:41.996Z,70.50
2023-04-24T21:44:10.084Z,70.20
2023-04-24T21:46:37.902Z,70.10
2023-04-24T21:49:06.128Z,70.40
2023-04-24T21:51:33.889Z,70.30
2023-04-24T21:54:03.084Z,70.40
2023-04-24T21:56:30.897Z,70.10
2023-04-24T21:58:59.062Z,70.30
2023-04-24T22:01:26.901Z,70.10
2023-04-24T22:03:54.938Z,70.20
2023-04-24T22:06:23.108Z,70.20
2023-04-24T22:08:51.624Z,70.20
2023-04-24T22:11:26.913Z,70.10
2023-04-24T22:13:55.150Z,69.90
2023-04-24T22:16:24.662Z,70.20
2023-04-24T22:18:55.120Z,69.70
2023-04-24T22:21:23.477Z,70.10
2023-04-24T22:23:51.706Z,69.90
2023-04-24T22:26:21.113Z,70.00
2023-04-24T22:28:48.940Z,70.10
2023-04-24T22:31:16.916Z,70.20
2023-04-24T22:33:46.513Z,69.80
2023-04-24T22:36:14.745Z,69.80
2023-04-24T22:38:42.536Z,70.10
2023-04-24T22:41:10.419Z,70.00
2023-04-24T22:43:39.774Z,70.00
2023-04-24T22:46:07.672Z,70.30
2023-04-24T22:48:36.107Z,70.20
2023-04-24T22:51:04.005Z,70.40
2023-04-24T22:53:31.800Z,70.00
2023-04-24T22:55:59.727Z,70.20
2023-04-24T22:58:28.167Z,69.80
2023-04-24T23:00:57.365Z,69.50
2023-04-24T23:03:25.685Z,69.90
2023-04-24T23:05:53.744Z,70.20
2023-04-24T23:08:21.510Z,70.00
2023-04-24T23:10:49.364Z,69.90
2023-04-24T23:13:17.333Z,70.10
2023-04-24T23:15:45.253Z,69.90
2023-04-24T23:18:14.440Z,69.90
2023-04-24T23:20:42.296Z,69.70
2023-04-24T23:23:10.095Z,69.80
2023-04-24T23:25:37.956Z,69.70
2023-04-24T23:28:06.011Z,69.90
2023-04-24T23:30:33.859Z,70.10
2023-04-24T23:33:02.413Z,70.40
2023-04-24T23:35:31.781Z,70.20
2023-04-24T23:37:59.608Z,71.00
2023-04-24T23:40:27.605Z,70.30
2023-04-24T23:43:06.373Z,70.30
2023-04-24T23:45:35.999Z,70.40
2023-04-24T23:48:04.459Z,70.20
2023-04-24T23:50:33.991Z,70.50
2023-04-24T23:53:01.858Z,70.40
2023-04-24T23:55:29.807Z,70.00
2023-04-24T23:57:57.568Z,70.20
